createdAt,value
2022-09-28T00:01:35.586Z,71.32
2022-09-28T00:04:09.973Z,72.62
2022-09-28T00:06:44.186Z,72.93
2022-09-28T00:09:19.318Z,73.44
2022-09-28T00:11:57.105Z,73.23
2022-09-28T00:14:32.446Z,72.51
2022-09-28T00:17:06.415Z,71.76
2022-09-28T00:19:41.178Z,71.77
2022-09-28T00:22:15.170Z,71.78
2022-09-28T00:24:49.512Z,73.49
2022-09-28T00:27:25.071Z,72.77
2022-09-28T00:30:02.715Z,71.84
2022-09-28T00:32:37.499Z,73.34
2022-09-28T00:35:12.017Z,73.79
2022-09-28T00:37:48.351Z,73.36
2022-09-28T00:40:22.783Z,73.95
2022-09-28T00:42:58.243Z,73.17
2022-09-28T00:45:32.815Z,72.96
2022-09-28T00:48:07.033Z,73.35
2022-09-28T00:50:41.489Z,72.00
2022-09-28T00:53:19.239Z,72.93
2022-09-28T00:55:56.743Z,73.40
2022-09-28T00:58:35.735Z,74.48
2022-09-28T01:01:10.302Z,75.00
2022-09-28T01:03:45.581Z,74.06
2022-09-28T01:06:22.078Z,74.37
2022-09-28T01:09:02.605Z,76.32
2022-09-28T01:11:40.539Z,75.66
2022-09-28T01:14:18.110Z,75.11
2022-09-28T01:17:00.946Z,75.05
2022-09-28T01:20:07.627Z,75.22
2022-09-28T01:23:21.251Z,74.92
2022-09-28T01:25:59.519Z,74.41
2022-09-28T01:28:35.490Z,74.37
2022-09-28T01:31:13.786Z,75.04
2022-09-28T01:33:53.922Z,74.67
2022-09-28T01:36:34.904Z,74.12
2022-09-28T01:39:14.450Z,74.21
2022-09-28T01:41:53.373Z,73.63
2022-09-28T01:44:32.589Z,74.19
2022-09-28T01:47:10.534Z,76.49
2022-09-28T01:49:49.404Z,75.71
2022-09-28T01:52:28.050Z,75.29
2022-09-28T01:55:11.879Z,76.18
2022-09-28T01:57:51.539Z,74.80
2022-09-28T02:00:28.997Z,75.87
2022-09-28T02:03:13.894Z,75.99
2022-09-28T02:05:54.790Z,77.15
2022-09-28T02:08:34.859Z,77.05
2022-09-28T02:11:15.370Z,76.41
2022-09-28T02:13:54.035Z,75.10
2022-09-28T02:16:35.622Z,76.11
2022-09-28T02:19:13.939Z,76.62
2022-09-28T02:21:55.151Z,77.07
2022-09-28T02:24:36.527Z,77.29
2022-09-28T02:27:16.752Z,78.17
2022-09-28T02:29:52.161Z,78.44
2022-09-28T02:32:32.903Z,78.42
2022-09-28T02:35:09.354Z,78.57
2022-09-28T02:37:43.871Z,78.68
2022-09-28T02:40:21.671Z,78.74
2022-09-28T02:43:06.465Z,79.20
2022-09-28T02:45:51.412Z,79.54
2022-09-28T02:49:04.840Z,79.13
2022-09-28T02:51:48.078Z,79.12
2022-09-28T02:54:38.381Z,80.11
2022-09-28T02:57:25.042Z,79.75
2022-09-28T03:00:08.084Z,80.89
2022-09-28T03:02:51.845Z,81.33
2022-09-28T03:05:38.420Z,81.09
2022-09-28T03:08:21.073Z,81.23
2022-09-28T03:11:00.728Z,81.58
2022-09-28T03:13:36.429Z,81.34
2022-09-28T03:16:12.477Z,81.18
2022-09-28T03:18:47.839Z,81.48
2022-09-28T03:21:23.553Z,81.15
2022-09-28T03:23:58.112Z,81.25
2022-09-28T03:26:32.141Z,81.70
2022-09-28T03:29:06.766Z,81.24
2022-09-28T03:31:40.905Z,81.11
2022-09-28T03:34:15.430Z,81.53
2022-09-28T03:36:50.915Z,81.68
2022-09-28T03:39:25.799Z,82.00
2022-09-28T03:42:01.476Z,82.24
2022-09-28T03:44:36.597Z,82.11
2022-09-28T03:47:10.747Z,82.59
2022-09-28T03:49:45.691Z,82.38
2022-09-28T03:52:21.155Z,81.93
2022-09-28T03:54:55.652Z,82.27
2022-09-28T03:57:29.689Z,82.25
2022-09-28T04:00:05.216Z,82.19
2022-09-28T04:02:47.432Z,82.32
2022-09-28T04:05:21.833Z,82.34
2022-09-28T04:07:57.885Z,82.06
2022-09-28T04:10:32.504Z,82.62
2022-09-28T04:13:06.559Z,82.53
2022-09-28T04:15:41.139Z,82.13
2022-09-28T04:18:15.270Z,82.78
2022-09-28T04:21:00.268Z,95.86
2022-09-28T04:23:36.652Z,99.24
2022-09-28T04:26:17.539Z,96.81
2022-09-28T04:29:08.780Z,81.04
2022-09-28T04:31:45.770Z,80.59
2022-09-28T04:34:22.694Z,80.08
2022-09-28T04:36:57.146Z,80.56
2022-09-28T04:39:33.430Z,81.13
2022-09-28T04:42:08.042Z,81.66
2022-09-28T04:44:42.175Z,81.92
2022-09-28T04:47:16.582Z,82.15
2022-09-28T04:49:52.773Z,81.98
2022-09-28T04:52:27.871Z,82.23
2022-09-28T04:55:03.271Z,82.50
2022-09-28T04:57:37.750Z,82.66
2022-09-28T05:00:13.264Z,82.29
2022-09-28T05:02:51.832Z,82.04
2022-09-28T05:05:27.004Z,81.57
2022-09-28T05:08:02.133Z,81.85
2022-09-28T05:10:40.451Z,83.02
2022-09-28T05:13:15.567Z,100.00
2022-09-28T05:15:58.068Z,98.24
2022-09-28T05:18:34.122Z,88.45
2022-09-28T05:21:12.828Z,81.07
2022-09-28T05:23:48.638Z,79.82
2022-09-28T05:26:24.541Z,81.40
2022-09-28T05:28:58.957Z,83.04
2022-09-28T05:31:39.216Z,83.93
2022-09-28T05:34:13.841Z,84.51
2022-09-28T05:36:48.363Z,84.57
2022-09-28T05:39:24.350Z,84.53
2022-09-28T05:41:59.737Z,84.38
2022-09-28T05:44:34.097Z,84.63
2022-09-28T05:47:08.553Z,83.83
2022-09-28T05:49:43.162Z,83.57
2022-09-28T05:52:18.848Z,85.11
2022-09-28T05:54:53.166Z,85.98
2022-09-28T05:57:28.642Z,87.16
2022-09-28T06:00:03.612Z,87.21
2022-09-28T06:02:46.581Z,87.38
2022-09-28T06:05:21.097Z,87.16
2022-09-28T06:07:57.889Z,97.19
2022-09-28T06:10:33.100Z,99.19
2022-09-28T06:13:10.507Z,92.71
2022-09-28T06:15:46.378Z,93.29
2022-09-28T06:18:21.048Z,83.28
2022-09-28T06:20:57.457Z,83.26
2022-09-28T06:23:33.001Z,85.28
2022-09-28T06:26:07.539Z,85.37
2022-09-28T06:28:42.977Z,85.34
2022-09-28T06:31:18.034Z,86.61
2022-09-28T06:33:52.556Z,87.34
2022-09-28T06:36:26.855Z,88.06
2022-09-28T06:39:01.075Z,87.16
2022-09-28T06:41:35.833Z,86.53
2022-09-28T06:44:19.420Z,86.88
2022-09-28T06:46:57.113Z,87.62
2022-09-28T06:49:32.660Z,87.19
2022-09-28T06:52:09.429Z,87.83
2022-09-28T06:54:43.755Z,87.19
2022-09-28T06:57:19.325Z,87.58
2022-09-28T06:59:55.772Z,86.63
2022-09-28T07:02:31.402Z,87.58
2022-09-28T07:05:09.605Z,86.54
2022-09-28T07:07:44.808Z,86.29
2022-09-28T07:10:19.162Z,87.14
2022-09-28T07:12:53.734Z,86.57
2022-09-28T07:15:30.727Z,87.68
2022-09-28T07:18:07.111Z,87.21
2022-09-28T07:20:52.646Z,86.59
2022-09-28T07:23:30.661Z,86.27
2022-09-28T07:26:08.864Z,83.55
2022-09-28T07:28:44.235Z,85.56
2022-09-28T07:31:25.317Z,82.17
2022-09-28T07:33:59.763Z,81.24
2022-09-28T07:36:35.237Z,83.25
2022-09-28T07:39:11.699Z,76.76
2022-09-28T07:41:46.295Z,75.84
2022-09-28T07:44:22.457Z,75.97
2022-09-28T07:46:58.104Z,75.23
2022-09-28T07:49:33.666Z,77.10
2022-09-28T07:52:08.165Z,75.35
2022-09-28T07:54:42.637Z,76.59
2022-09-28T07:57:17.086Z,76.86
2022-09-28T07:59:53.679Z,75.99
2022-09-28T08:02:35.249Z,73.25
2022-09-28T08:05:10.999Z,73.82
2022-09-28T08:07:45.171Z,74.17
2022-09-28T08:10:20.845Z,72.00
2022-09-28T08:12:59.250Z,73.06
2022-09-28T08:15:37.195Z,71.51
2022-09-28T08:18:14.063Z,72.27
2022-09-28T08:21:06.192Z,70.96
2022-09-28T08:23:40.434Z,70.67
2022-09-28T08:26:15.798Z,69.01
2022-09-28T08:28:50.313Z,68.58
2022-09-28T08:31:27.380Z,70.69
2022-09-28T08:34:06.148Z,72.98
2022-09-28T08:36:43.923Z,70.45
2022-09-28T08:39:21.507Z,69.15
2022-09-28T08:42:13.580Z,69.65
2022-09-28T08:44:51.397Z,67.20
2022-09-28T08:47:47.973Z,68.25
2022-09-28T08:50:29.858Z,66.13
2022-09-28T08:53:14.596Z,67.67
2022-09-28T08:55:49.405Z,66.48
2022-09-28T08:58:28.374Z,65.75
2022-09-28T09:01:05.851Z,66.66
2022-09-28T09:03:42.007Z,65.44
2022-09-28T09:06:28.554Z,65.06
2022-09-28T09:09:11.196Z,67.16
2022-09-28T09:11:57.447Z,66.73
2022-09-28T09:14:59.454Z,68.47
2022-09-28T09:17:49.274Z,66.05
2022-09-28T09:20:34.604Z,67.60
2022-09-28T09:23:18.576Z,67.91
2022-09-28T09:25:56.179Z,69.22
2022-09-28T09:28:56.297Z,68.10
2022-09-28T09:31:53.085Z,67.38
2022-09-28T09:34:51.029Z,66.89
2022-09-28T09:37:48.496Z,68.38
2022-09-28T09:40:45.557Z,67.65
2022-09-28T09:43:42.116Z,66.35
2022-09-28T09:46:33.580Z,68.28
2022-09-28T09:49:16.554Z,68.51
2022-09-28T09:51:56.024Z,64.32
2022-09-28T09:54:36.992Z,64.87
2022-09-28T09:57:16.940Z,63.21
2022-09-28T09:59:52.203Z,63.30
2022-09-28T10:02:30.108Z,62.74
2022-09-28T10:05:20.076Z,62.40
2022-09-28T10:08:00.006Z,61.60
2022-09-28T10:10:38.352Z,60.77
2022-09-28T10:13:13.807Z,61.68
2022-09-28T10:15:50.559Z,63.82
2022-09-28T10:18:25.101Z,63.00
2022-09-28T10:21:14.353Z,60.80
2022-09-28T10:23:51.409Z,61.58
2022-09-28T10:26:34.528Z,60.72
2022-09-28T10:29:15.893Z,62.92
2022-09-28T10:31:51.843Z,60.89
2022-09-28T10:34:33.049Z,61.93
2022-09-28T10:37:12.260Z,62.47
2022-09-28T10:39:50.763Z,61.34
2022-09-28T10:42:29.855Z,59.81
2022-09-28T10:45:20.741Z,60.52
2022-09-28T10:47:56.079Z,61.02
2022-09-28T10:50:30.144Z,59.11
2022-09-28T10:53:20.585Z,59.77
2022-09-28T10:56:02.038Z,60.44
2022-09-28T10:58:39.831Z,60.18
2022-09-28T11:01:19.047Z,62.09
2022-09-28T11:03:57.767Z,63.51
2022-09-28T11:06:38.181Z,61.37
2022-09-28T11:09:30.596Z,63.06
2022-09-28T11:12:14.637Z,61.27
2022-09-28T11:14:52.887Z,60.88
2022-09-28T11:17:30.720Z,59.30
2022-09-28T11:20:31.542Z,59.55
2022-09-28T11:23:21.671Z,58.96
2022-09-28T11:25:58.287Z,59.88
2022-09-28T11:28:34.572Z,57.89
2022-09-28T11:31:10.400Z,58.40
2022-09-28T11:33:48.376Z,58.23
2022-09-28T11:36:36.263Z,58.26
2022-09-28T11:39:18.467Z,56.92
2022-09-28T11:42:03.327Z,56.10
2022-09-28T11:44:44.731Z,56.28
2022-09-28T11:47:46.650Z,56.81
2022-09-28T11:50:32.442Z,56.42
2022-09-28T11:53:16.636Z,56.74
2022-09-28T11:55:58.611Z,56.96
2022-09-28T11:58:36.862Z,56.19
2022-09-28T12:01:22.563Z,56.34
2022-09-28T12:04:05.053Z,58.26
2022-09-28T12:06:47.693Z,53.33
2022-09-28T12:09:28.685Z,52.54
2022-09-28T12:12:10.471Z,51.67
2022-09-28T12:14:46.970Z,53.03
2022-09-28T12:17:27.942Z,52.52
2022-09-28T12:20:08.449Z,51.88
2022-09-28T12:22:48.050Z,52.09
2022-09-28T12:25:24.519Z,55.10
2022-09-28T12:28:02.276Z,54.59
2022-09-28T12:30:40.793Z,54.55
2022-09-28T12:33:16.452Z,54.48
2022-09-28T12:36:03.999Z,53.82
2022-09-28T12:39:18.169Z,53.18
2022-09-28T12:42:07.852Z,53.81
2022-09-28T12:44:59.452Z,53.84
2022-09-28T12:48:03.407Z,54.23
2022-09-28T12:50:56.006Z,53.97
2022-09-28T12:53:53.042Z,55.14
2022-09-28T12:56:34.599Z,55.49
2022-09-28T12:59:19.946Z,56.21
2022-09-28T13:02:15.566Z,55.90
2022-09-28T13:05:20.002Z,56.49
2022-09-28T13:08:00.269Z,56.13
2022-09-28T13:10:43.077Z,56.49
2022-09-28T13:13:33.968Z,58.06
2022-09-28T13:16:18.617Z,59.90
2022-09-28T13:19:02.192Z,57.25
2022-09-28T13:21:42.723Z,58.15
2022-09-28T13:24:33.555Z,55.83
2022-09-28T13:27:16.155Z,56.01
2022-09-28T13:29:51.842Z,54.99
2022-09-28T13:32:29.987Z,56.54
2022-09-28T13:35:05.532Z,54.95
2022-09-28T13:37:40.454Z,55.31
2022-09-28T13:40:15.347Z,55.26
2022-09-28T13:43:18.836Z,55.66
2022-09-28T13:45:56.828Z,55.74
2022-09-28T13:48:44.822Z,54.80
2022-09-28T13:51:40.045Z,53.82
2022-09-28T13:54:29.592Z,53.84
2022-09-28T13:57:14.679Z,53.76
2022-09-28T14:00:02.706Z,55.07
2022-09-28T14:02:48.743Z,53.92
2022-09-28T14:06:04.157Z,55.32
2022-09-28T14:08:40.700Z,55.48
2022-09-28T14:11:44.000Z,55.01
2022-09-28T14:14:50.523Z,56.04
2022-09-28T14:18:00.388Z,56.32
2022-09-28T14:20:36.716Z,55.15
2022-09-28T14:23:41.795Z,56.15
2022-09-28T14:26:49.305Z,56.12
2022-09-28T14:29:31.510Z,56.04
2022-09-28T14:32:22.356Z,57.00
2022-09-28T14:35:01.102Z,55.62
2022-09-28T14:37:56.488Z,56.22
2022-09-28T14:41:12.613Z,57.49
2022-09-28T14:44:03.692Z,56.63
2022-09-28T14:46:43.802Z,57.28
2022-09-28T14:49:49.028Z,56.50
2022-09-28T14:52:41.103Z,57.39
2022-09-28T14:55:18.673Z,57.82
2022-09-28T14:57:54.290Z,58.01
2022-09-28T15:00:32.065Z,57.69
2022-09-28T15:03:12.057Z,58.00
2022-09-28T15:05:48.262Z,58.44
2022-09-28T15:08:23.181Z,57.97
2022-09-28T15:11:02.020Z,58.00
2022-09-28T15:13:37.562Z,57.34
2022-09-28T15:16:15.631Z,58.02
2022-09-28T15:19:15.692Z,57.85
2022-09-28T15:21:51.196Z,58.06
2022-09-28T15:24:28.120Z,58.68
2022-09-28T15:27:03.718Z,58.76
2022-09-28T15:29:38.401Z,59.53
2022-09-28T15:32:26.147Z,59.20
2022-09-28T15:35:11.889Z,58.90
2022-09-28T15:37:46.224Z,59.52
2022-09-28T15:40:30.018Z,60.12
2022-09-28T15:43:21.370Z,60.56
2022-09-28T15:46:06.034Z,60.72
2022-09-28T15:48:51.997Z,61.30
2022-09-28T15:51:28.453Z,61.49
2022-09-28T15:54:05.422Z,61.45
2022-09-28T15:56:52.450Z,62.06
2022-09-28T15:59:32.717Z,61.98
2022-09-28T16:02:13.697Z,62.48
2022-09-28T16:04:51.828Z,62.52
2022-09-28T16:07:34.780Z,62.55
2022-09-28T16:10:33.904Z,62.85
2022-09-28T16:13:20.100Z,63.51
2022-09-28T16:16:00.324Z,63.41
2022-09-28T16:18:38.136Z,63.40
2022-09-28T16:21:48.136Z,62.74
2022-09-28T16:24:24.750Z,63.02
2022-09-28T16:27:02.678Z,62.67
2022-09-28T16:29:40.389Z,62.90
2022-09-28T16:32:41.785Z,63.68
2022-09-28T16:35:22.666Z,63.78
2022-09-28T16:38:05.668Z,63.18
2022-09-28T16:40:42.016Z,63.59
2022-09-28T16:43:23.460Z,63.60
2022-09-28T16:46:00.282Z,63.73
2022-09-28T16:48:39.545Z,63.86
2022-09-28T16:51:13.629Z,64.13
2022-09-28T16:54:07.627Z,64.43
2022-09-28T16:56:41.819Z,64.58
2022-09-28T16:59:16.197Z,64.20
2022-09-28T17:01:50.535Z,64.66
2022-09-28T17:04:25.239Z,64.39
2022-09-28T17:06:59.444Z,64.88
2022-09-28T17:09:35.701Z,65.24
2022-09-28T17:12:24.606Z,66.03
2022-09-28T17:15:00.384Z,67.13
2022-09-28T17:17:34.444Z,66.59
2022-09-28T17:20:20.376Z,67.61
2022-09-28T17:22:54.663Z,68.33
2022-09-28T17:25:30.604Z,68.60
2022-09-28T17:28:06.215Z,70.02
2022-09-28T17:30:40.689Z,69.19
2022-09-28T17:33:15.196Z,70.09
2022-09-28T17:35:52.508Z,70.19
2022-09-28T17:38:26.841Z,70.58
2022-09-28T17:41:03.157Z,71.17
2022-09-28T17:43:37.332Z,71.75
2022-09-28T17:46:29.325Z,71.27
2022-09-28T17:49:05.681Z,71.21
2022-09-28T17:51:40.203Z,71.33
2022-09-28T17:54:16.852Z,71.98
2022-09-28T17:56:52.682Z,72.32
2022-09-28T17:59:28.640Z,72.32
2022-09-28T18:02:02.983Z,72.91
2022-09-28T18:04:51.795Z,73.18
2022-09-28T18:07:28.633Z,73.45
2022-09-28T18:10:03.153Z,73.58
2022-09-28T18:12:38.623Z,74.00
2022-09-28T18:15:13.275Z,73.91
2022-09-28T18:17:47.474Z,73.95
2022-09-28T18:20:21.977Z,74.46
2022-09-28T18:22:56.188Z,75.79
2022-09-28T18:25:31.088Z,76.05
2022-09-28T18:28:06.524Z,76.11
2022-09-28T18:30:42.444Z,76.13
2022-09-28T18:33:16.561Z,77.36
2022-09-28T18:35:53.200Z,76.62
2022-09-28T18:38:27.405Z,76.91
2022-09-28T18:41:08.812Z,78.06
2022-09-28T18:43:48.961Z,77.99
2022-09-28T18:46:27.142Z,78.63
2022-09-28T18:49:01.383Z,78.73
2022-09-28T18:51:35.894Z,79.53
2022-09-28T18:54:10.073Z,79.74
2022-09-28T18:56:44.604Z,80.03
2022-09-28T18:59:20.457Z,79.79
2022-09-28T19:01:55.454Z,80.13
2022-09-28T19:04:29.665Z,80.26
2022-09-28T19:07:04.133Z,86.06
2022-09-28T19:09:40.635Z,88.71
2022-09-28T19:12:15.826Z,86.58
2022-09-28T19:14:51.620Z,78.56
2022-09-28T19:17:26.375Z,78.86
2022-09-28T19:20:00.688Z,79.71
2022-09-28T19:22:35.381Z,80.42
2022-09-28T19:25:09.770Z,80.81
2022-09-28T19:27:44.161Z,81.08
2022-09-28T19:30:19.723Z,81.61
2022-09-28T19:32:54.105Z,82.19
2022-09-28T19:35:28.186Z,81.93
2022-09-28T19:38:02.580Z,81.85
2022-09-28T19:40:38.268Z,82.29
2022-09-28T19:43:12.789Z,82.03
2022-09-28T19:45:52.113Z,81.99
2022-09-28T19:48:27.891Z,82.35
2022-09-28T19:51:03.346Z,83.10
2022-09-28T19:53:38.000Z,83.29
2022-09-28T19:56:12.227Z,83.46
2022-09-28T19:58:46.685Z,83.63
2022-09-28T20:01:22.442Z,83.59
2022-09-28T20:03:57.165Z,83.94
2022-09-28T20:06:33.132Z,83.85
2022-09-28T20:09:08.005Z,84.70
2022-09-28T20:11:42.173Z,84.58
2022-09-28T20:14:18.732Z,92.21
2022-09-28T20:16:54.241Z,90.01
2022-09-28T20:19:28.614Z,81.80
2022-09-28T20:22:02.834Z,82.05
2022-09-28T20:24:37.500Z,81.98
2022-09-28T20:27:11.539Z,87.73
2022-09-28T20:29:45.976Z,88.47
2022-09-28T20:32:21.445Z,80.07
2022-09-28T20:37:17.584Z,81.34
2022-09-28T20:39:52.240Z,81.34
2022-09-28T20:42:26.273Z,82.36
2022-09-28T20:45:00.673Z,83.03
2022-09-28T20:47:34.866Z,83.88
2022-09-28T20:50:11.437Z,84.78
2022-09-28T20:52:46.798Z,85.02
2022-09-28T20:55:21.135Z,86.07
2022-09-28T20:57:55.178Z,85.83
2022-09-28T21:00:29.734Z,85.56
2022-09-28T21:03:03.789Z,85.04
2022-09-28T21:05:38.259Z,84.21
2022-09-28T21:08:14.370Z,84.05
2022-09-28T21:10:48.734Z,84.91
2022-09-28T21:13:23.137Z,85.07
2022-09-28T21:16:02.996Z,86.36
2022-09-28T21:18:37.028Z,85.87
2022-09-28T21:21:14.135Z,86.24
2022-09-28T21:23:52.855Z,85.85
2022-09-28T21:26:28.798Z,85.69
2022-09-28T21:29:04.642Z,86.74
2022-09-28T21:31:42.000Z,86.70
2022-09-28T21:34:19.343Z,87.01
2022-09-28T21:36:54.529Z,86.61
2022-09-28T21:39:30.023Z,86.52
2022-09-28T21:42:04.353Z,85.88
2022-09-28T21:44:38.406Z,86.18
2022-09-28T21:47:12.696Z,86.21
2022-09-28T21:49:49.027Z,85.88
2022-09-28T21:52:23.360Z,86.11
2022-09-28T21:54:58.784Z,85.54
2022-09-28T21:57:33.745Z,85.60
2022-09-28T22:00:12.087Z,84.48
2022-09-28T22:02:46.898Z,85.08
2022-09-28T22:05:20.974Z,85.40
2022-09-28T22:07:55.504Z,85.47
2022-09-28T22:10:30.899Z,85.47
2022-09-28T22:13:05.479Z,85.60
2022-09-28T22:15:39.636Z,85.55
2022-09-28T22:18:13.936Z,84.86
2022-09-28T22:20:48.033Z,85.11
2022-09-28T22:23:23.072Z,85.13
2022-09-28T22:26:02.334Z,85.89
2022-09-28T22:28:36.940Z,86.42
2022-09-28T22:31:11.096Z,86.28
2022-09-28T22:33:45.541Z,86.14
2022-09-28T22:36:20.044Z,85.78
2022-09-28T22:38:55.687Z,85.58
2022-09-28T22:41:32.185Z,85.76
2022-09-28T22:44:06.672Z,85.85
2022-09-28T22:46:40.982Z,85.03
2022-09-28T22:49:15.612Z,84.83
2022-09-28T22:51:49.596Z,84.79
2022-09-28T22:54:23.936Z,85.13
2022-09-28T22:56:59.351Z,85.73
2022-09-28T22:59:33.833Z,86.28
2022-09-28T23:02:07.887Z,84.78
2022-09-28T23:04:42.226Z,86.07
2022-09-28T23:07:16.265Z,86.85
2022-09-28T23:09:50.753Z,85.97
2022-09-28T23:12:26.104Z,86.00
2022-09-28T23:15:00.509Z,87.02
2022-09-28T23:17:34.510Z,87.59
2022-09-28T23:20:09.779Z,87.77
2022-09-28T23:22:47.112Z,86.70
2022-09-28T23:25:21.587Z,86.75
2022-09-28T23:27:57.018Z,86.32
2022-09-28T23:30:31.371Z,87.34
2022-09-28T23:33:05.454Z,87.18
2022-09-28T23:35:39.767Z,85.80
2022-09-28T23:38:14.710Z,86.22
2022-09-28T23:40:49.168Z,86.81
2022-09-28T23:43:24.709Z,87.75
2022-09-28T23:45:59.086Z,87.25
2022-09-28T23:48:33.523Z,87.78
2022-09-28T23:51:07.927Z,87.85
2022-09-28T23:53:44.291Z,87.55
2022-09-28T23:56:18.571Z,87.26
2022-09-28T23:58:53.965Z,86.61
